Time;durP1;ratioP1;P1;durP2;ratioP2;P2;SDS_P1;SDS_P2;PMS_P1;PMS_P2;Temp;Humidity;BMP_temperature;BMP_pressure;BME280_temperature;BME280_humidity;BME280_pressure;Samples;Min_cycle;Max_cycle;Signal;HPM_P1;HPM_P2
2022/11/07 00:02:08;;;;;;;4.40;3.77;;;9.50;83.60;;;;;;4991113;28;20190;-91
2022/11/07 00:04:34;;;;;;;4.60;3.40;;;9.50;83.60;;;;;;4993854;28;20269;-92
2022/11/07 00:07:00;;;;;;;4.10;3.30;;;9.50;83.60;;;;;;4993942;28;20276;-92
2022/11/07 00:09:26;;;;;;;4.30;3.70;;;9.50;83.70;;;;;;4992224;28;20190;-91
2022/11/07 00:11:52;;;;;;;4.93;3.77;;;9.50;83.60;;;;;;4989513;28;20208;-91
2022/11/07 00:14:17;;;;;;;3.70;3.10;;;9.60;83.10;;;;;;4991502;28;20186;-92
2022/11/07 00:16:45;;;;;;;4.53;3.70;;;9.60;83.30;;;;;;4990957;28;20209;-91
2022/11/07 00:19:13;;;;;;;4.63;3.63;;;9.50;83.80;;;;;;4990591;28;20644;-91
2022/11/07 00:21:39;;;;;;;4.90;4.00;;;9.70;82.90;;;;;;4992869;28;20221;-91
2022/11/07 00:24:07;;;;;;;5.73;3.40;;;9.60;83.40;;;;;;4990819;28;20178;-91
2022/11/07 00:26:33;;;;;;;4.63;4.10;;;9.70;83.10;;;;;;4990697;28;20189;-92
2022/11/07 00:28:58;;;;;;;5.43;3.70;;;9.80;83.00;;;;;;4990508;28;20178;-92
2022/11/07 00:31:24;;;;;;;5.53;4.20;;;9.70;83.40;;;;;;4990289;28;20185;-91
2022/11/07 00:33:50;;;;;;;8.13;3.33;;;9.70;83.20;;;;;;4988547;28;20178;-91
2022/11/07 00:36:18;;;;;;;5.93;4.17;;;9.80;83.20;;;;;;4988775;28;20210;-92
2022/11/07 00:38:44;;;;;;;4.97;4.07;;;9.80;83.60;;;;;;4987142;28;20178;-91
2022/11/07 00:41:10;;;;;;;6.57;3.50;;;9.80;83.50;;;;;;4992069;28;20181;-91
2022/11/07 00:43:35;;;;;;;7.93;4.40;;;9.80;83.70;;;;;;4985436;28;20182;-91
2022/11/07 00:46:03;;;;;;;4.63;3.97;;;9.80;83.70;;;;;;4989080;28;20202;-92
2022/11/07 00:48:29;;;;;;;3.47;3.10;;;9.80;84.00;;;;;;4988196;28;20273;-91
2022/11/07 00:50:55;;;;;;;6.77;4.30;;;9.80;83.70;;;;;;4989717;28;20192;-92
2022/11/07 00:53:20;;;;;;;5.40;3.87;;;9.80;83.70;;;;;;4988939;28;20289;-92
2022/11/07 00:55:46;;;;;;;10.23;4.97;;;9.90;83.60;;;;;;4990263;28;20194;-91
2022/11/07 00:58:12;;;;;;;6.70;5.40;;;9.90;83.80;;;;;;4989772;28;20182;-91
2022/11/07 01:00:37;;;;;;;7.80;4.83;;;9.90;83.70;;;;;;4992556;28;20205;-91
2022/11/07 01:06:02;;;;;;;9.97;4.90;;;9.90;84.10;;;;;;5005990;28;20173;-91
2022/11/07 01:08:28;;;;;;;9.53;5.83;;;9.90;84.20;;;;;;4988270;28;20189;-92
2022/11/07 01:10:55;;;;;;;7.53;4.90;;;9.90;84.00;;;;;;4989840;28;20194;-91
2022/11/07 01:13:21;;;;;;;7.17;4.77;;;9.90;84.30;;;;;;4988877;28;20201;-91
2022/11/07 01:15:46;;;;;;;6.77;4.43;;;9.90;84.20;;;;;;4990064;28;20321;-92
2022/11/07 01:18:12;;;;;;;3.87;3.47;;;9.90;84.50;;;;;;4988798;28;20420;-91
2022/11/07 01:20:39;;;;;;;7.27;4.80;;;9.90;84.60;;;;;;4991191;28;20178;-92
2022/11/07 01:23:05;;;;;;;6.97;4.53;;;10.00;84.40;;;;;;4990458;28;20190;-91
2022/11/07 01:25:31;;;;;;;5.87;4.30;;;10.00;83.80;;;;;;4988984;28;20205;-91
2022/11/07 01:27:56;;;;;;;8.97;4.47;;;10.00;84.00;;;;;;4989833;28;20181;-91
2022/11/07 01:30:22;;;;;;;8.80;4.70;;;10.00;84.10;;;;;;4989131;28;20177;-91
2022/11/07 01:32:47;;;;;;;6.97;4.20;;;9.90;84.40;;;;;;4989414;28;20636;-91
2022/11/07 01:35:14;;;;;;;4.27;3.87;;;9.90;84.80;;;;;;4989760;28;20259;-91
2022/11/07 01:37:39;;;;;;;5.17;4.20;;;9.90;84.80;;;;;;4987818;28;20221;-91
2022/11/07 01:40:05;;;;;;;5.60;4.33;;;10.00;84.50;;;;;;4990337;28;20182;-91
2022/11/07 01:42:31;;;;;;;9.27;4.83;;;10.00;84.70;;;;;;4991125;28;20332;-92
2022/11/07 01:44:58;;;;;;;7.37;4.13;;;9.90;84.70;;;;;;4990404;28;20178;-92
2022/11/07 01:47:30;;;;;;;2.93;2.73;;;10.00;84.40;;;;;;4987448;28;20719;-92
2022/11/07 01:49:56;;;;;;;5.93;4.40;;;10.00;84.20;;;;;;4988366;28;20205;-90
2022/11/07 01:52:33;;;;;;;7.40;4.40;;;10.00;84.20;;;;;;4990633;28;20205;-91
2022/11/07 01:55:16;;;;;;;8.40;4.57;;;10.10;84.50;;;;;;4989722;28;20264;-91
2022/11/07 01:57:51;;;;;;;7.20;4.00;;;10.10;84.60;;;;;;4989828;28;20201;-91
2022/11/07 02:00:19;;;;;;;6.97;4.17;;;10.10;84.50;;;;;;4990741;28;20173;-92
2022/11/07 02:02:48;;;;;;;6.60;4.80;;;10.00;84.80;;;;;;4989772;28;20258;-91
2022/11/07 02:05:37;;;;;;;4.77;4.03;;;10.10;84.70;;;;;;5006223;28;20182;-91
2022/11/07 02:08:06;;;;;;;6.97;4.87;;;10.10;84.80;;;;;;4989690;28;20173;-92
2022/11/07 02:10:34;;;;;;;6.13;4.17;;;10.10;84.90;;;;;;4988907;28;20193;-91
2022/11/07 02:13:01;;;;;;;7.03;3.60;;;10.10;84.80;;;;;;4989251;28;20608;-91
2022/11/07 02:15:27;;;;;;;5.07;3.87;;;10.20;84.60;;;;;;4991470;28;20220;-92
2022/11/07 02:17:53;;;;;;;6.20;4.53;;;10.10;84.60;;;;;;4991094;28;20278;-91
2022/11/07 02:20:19;;;;;;;4.23;3.60;;;10.10;85.00;;;;;;4990615;28;20181;-91
2022/11/07 02:22:55;;;;;;;7.07;4.37;;;10.00;85.40;;;;;;4992011;28;20197;-92
2022/11/07 02:25:21;;;;;;;4.67;4.03;;;10.10;85.30;;;;;;4989285;28;20166;-91
2022/11/07 02:27:49;;;;;;;7.17;4.33;;;10.20;85.00;;;;;;4991154;28;20185;-91
2022/11/07 02:30:22;;;;;;;9.13;4.43;;;10.20;84.90;;;;;;4992742;28;20178;-92
2022/11/07 02:32:48;;;;;;;3.77;3.47;;;10.30;84.80;;;;;;4989910;28;20197;-91
2022/11/07 02:35:36;;;;;;;4.23;3.83;;;10.30;84.90;;;;;;4990339;28;20209;-91
2022/11/07 02:38:05;;;;;;;8.17;4.33;;;10.40;84.60;;;;;;4990536;28;20247;-91
2022/11/07 02:40:32;;;;;;;10.37;5.00;;;10.30;84.80;;;;;;4988590;28;20178;-92
2022/11/07 02:42:58;;;;;;;7.53;4.70;;;10.30;84.90;;;;;;4989049;28;20202;-91
2022/11/07 02:45:28;;;;;;;9.97;4.60;;;10.30;85.10;;;;;;4991693;28;20178;-91
2022/11/07 02:47:54;;;;;;;11.83;4.27;;;10.30;85.20;;;;;;4993048;28;20600;-91
2022/11/07 02:50:19;;;;;;;5.67;4.27;;;10.40;85.10;;;;;;4991429;28;20182;-91
2022/11/07 02:52:45;;;;;;;7.47;4.40;;;10.30;85.30;;;;;;4992292;28;20209;-91
2022/11/07 02:55:12;;;;;;;5.60;4.33;;;10.30;85.10;;;;;;4990821;28;20188;-91
2022/11/07 02:57:38;;;;;;;10.13;4.87;;;10.40;85.20;;;;;;4989867;28;20676;-91
2022/11/07 03:00:06;;;;;;;6.13;4.13;;;10.30;85.40;;;;;;4992234;28;20186;-91
2022/11/07 03:02:32;;;;;;;6.67;4.53;;;10.30;85.50;;;;;;4987989;28;20194;-91
2022/11/07 03:04:57;;;;;;;7.70;4.80;;;10.40;85.50;;;;;;4985022;28;20178;-91
2022/11/07 03:07:24;;;;;;;5.27;3.77;;;10.40;85.30;;;;;;4992447;28;20194;-91
2022/11/07 03:09:49;;;;;;;3.97;3.57;;;10.50;84.90;;;;;;4992952;28;20190;-91
2022/11/07 03:12:15;;;;;;;4.47;3.40;;;10.50;85.10;;;;;;4992665;28;20198;-91
2022/11/07 03:14:40;;;;;;;6.90;4.67;;;10.50;85.20;;;;;;4992465;28;20684;-91
2022/11/07 03:17:06;;;;;;;4.73;3.97;;;10.40;85.50;;;;;;4993882;28;20302;-91
2022/11/07 03:19:32;;;;;;;6.10;4.03;;;10.40;85.40;;;;;;4994478;28;20604;-91
2022/11/07 03:21:58;;;;;;;5.80;4.00;;;10.40;85.50;;;;;;4994035;28;20202;-91
2022/11/07 03:24:23;;;;;;;9.83;4.30;;;10.50;85.40;;;;;;4991478;28;20193;-91
2022/11/07 03:26:49;;;;;;;6.10;4.33;;;10.40;85.60;;;;;;4991881;28;20568;-91
2022/11/07 03:29:14;;;;;;;8.67;4.17;;;10.40;85.80;;;;;;4992805;28;20205;-91
2022/11/07 03:31:40;;;;;;;8.27;3.97;;;10.50;85.60;;;;;;4990817;28;20209;-91
2022/11/07 03:34:06;;;;;;;7.13;3.90;;;10.50;85.30;;;;;;4993241;28;20221;-91
2022/11/07 03:36:32;;;;;;;6.37;4.20;;;10.50;85.40;;;;;;4990591;28;20206;-91
2022/11/07 03:38:58;;;;;;;7.37;3.83;;;10.50;85.60;;;;;;4992720;28;20185;-90
2022/11/07 03:41:24;;;;;;;10.47;4.40;;;10.50;85.50;;;;;;4990952;28;20182;-90
2022/11/07 03:43:49;;;;;;;7.60;4.43;;;10.60;85.60;;;;;;4991817;28;20178;-91
2022/11/07 03:46:15;;;;;;;9.23;4.10;;;10.60;85.30;;;;;;4994392;28;20254;-91
2022/11/07 03:48:41;;;;;;;7.30;4.13;;;10.60;85.40;;;;;;4992713;28;20250;-91
2022/11/07 03:51:08;;;;;;;5.77;3.87;;;10.60;85.20;;;;;;4995135;28;20182;-91
2022/11/07 03:53:34;;;;;;;7.67;4.10;;;10.60;85.40;;;;;;4994275;28;20201;-91
2022/11/07 03:56:08;;;;;;;5.83;3.77;;;10.50;85.70;;;;;;4995081;28;20198;-92
2022/11/07 03:58:34;;;;;;;8.37;4.80;;;10.50;85.80;;;;;;4994260;28;20212;-91
2022/11/07 04:01:00;;;;;;;9.83;3.70;;;10.50;85.80;;;;;;4993368;28;20178;-91
2022/11/07 04:03:25;;;;;;;5.30;3.57;;;10.50;86.00;;;;;;4994500;28;20249;-91
2022/11/07 04:05:51;;;;;;;13.47;4.07;;;10.50;86.10;;;;;;4992922;28;20252;-91
2022/11/07 04:08:17;;;;;;;5.87;3.40;;;10.50;86.30;;;;;;4993525;28;20190;-91
2022/11/07 04:10:42;;;;;;;14.67;4.20;;;10.50;86.00;;;;;;4991658;28;20201;-90
2022/11/07 04:18:38;;;;;;;6.07;3.23;;;10.70;85.80;;;;;;5001814;28;20209;-90
2022/11/07 04:21:03;;;;;;;7.93;3.47;;;10.80;85.60;;;;;;4982453;28;20182;-90
2022/11/07 04:23:29;;;;;;;8.30;3.60;;;10.80;85.70;;;;;;4982854;28;20638;-91
2022/11/07 04:28:39;;;;;;;9.07;3.60;;;10.80;85.80;;;;;;5000634;28;20173;-90
2022/11/07 04:31:04;;;;;;;8.87;3.73;;;10.80;85.90;;;;;;4981900;28;20182;-89
2022/11/07 04:33:30;;;;;;;4.77;3.07;;;10.90;85.70;;;;;;4984397;28;20202;-90
2022/11/07 04:35:55;;;;;;;13.23;3.33;;;10.90;85.50;;;;;;4983931;28;20202;-90
2022/11/07 04:38:21;;;;;;;13.23;3.90;;;11.00;85.50;;;;;;4982964;28;20214;-90
2022/11/07 04:40:57;;;;;;;10.07;3.63;;;10.90;85.70;;;;;;4983650;28;20182;-91
2022/11/07 04:43:24;;;;;;;7.70;2.90;;;11.00;85.50;;;;;;4984371;28;20197;-90
2022/11/07 04:45:51;;;;;;;7.33;2.77;;;11.10;85.30;;;;;;4984860;28;20178;-90
2022/11/07 04:48:17;;;;;;;8.13;3.30;;;11.10;85.20;;;;;;4983667;28;20182;-91
2022/11/07 04:50:44;;;;;;;7.00;3.20;;;11.10;85.30;;;;;;4983440;28;20538;-90
2022/11/07 04:53:12;;;;;;;6.90;3.30;;;11.10;85.30;;;;;;4984315;28;20206;-90
2022/11/07 04:55:37;;;;;;;10.93;3.57;;;11.00;85.50;;;;;;4983783;28;20178;-90
2022/11/07 04:58:03;;;;;;;10.30;3.57;;;11.00;85.60;;;;;;4983108;28;20274;-90
2022/11/07 05:00:28;;;;;;;12.37;3.13;;;11.00;85.70;;;;;;4998602;28;20172;-90
2022/11/07 05:02:54;;;;;;;8.87;2.70;;;10.90;86.00;;;;;;4981910;28;20676;-90
2022/11/07 05:05:20;;;;;;;5.67;3.70;;;10.90;86.00;;;;;;4981188;28;20197;-90
2022/11/07 05:07:45;;;;;;;6.43;2.57;;;10.90;86.00;;;;;;4981964;28;20185;-90
2022/11/07 05:10:23;;;;;;;9.87;3.63;;;10.90;86.20;;;;;;4982951;28;20648;-90
2022/11/07 05:12:49;;;;;;;2.50;2.30;;;11.00;86.00;;;;;;4984261;28;20197;-90
2022/11/07 05:15:16;;;;;;;11.53;3.57;;;11.00;86.00;;;;;;4983807;28;20181;-90
2022/11/07 05:17:41;;;;;;;12.20;3.20;;;11.00;85.70;;;;;;4982581;28;20706;-90
2022/11/07 05:20:31;;;;;;;8.77;3.47;;;11.00;85.90;;;;;;4984544;28;20174;-90
2022/11/07 05:23:13;;;;;;;9.60;3.03;;;11.00;86.00;;;;;;4980880;28;20214;-90
2022/11/07 05:25:44;;;;;;;9.70;2.70;;;11.00;86.00;;;;;;4983606;28;20238;-90
2022/11/07 05:28:16;;;;;;;8.90;3.30;;;11.00;85.90;;;;;;4983158;28;20170;-90
2022/11/07 05:30:43;;;;;;;8.67;3.23;;;11.00;85.80;;;;;;4982720;28;20166;-91
2022/11/07 05:33:10;;;;;;;8.30;2.87;;;11.00;85.90;;;;;;4981891;28;20622;-91
2022/11/07 05:35:36;;;;;;;8.50;3.07;;;10.80;86.10;;;;;;4982551;28;20175;-91
2022/11/07 05:38:01;;;;;;;9.47;3.80;;;10.80;86.20;;;;;;4981401;28;20711;-90
2022/11/07 05:40:27;;;;;;;9.80;2.70;;;10.80;86.30;;;;;;4996980;28;20210;-90
2022/11/07 05:42:59;;;;;;;8.50;3.07;;;10.80;86.40;;;;;;4980227;28;20202;-90
2022/11/07 05:45:25;;;;;;;9.97;3.00;;;10.80;86.60;;;;;;4981062;28;20213;-91
2022/11/07 05:47:57;;;;;;;7.40;3.17;;;10.80;86.30;;;;;;4982365;28;20217;-90
2022/11/07 05:50:23;;;;;;;8.67;3.07;;;10.80;86.10;;;;;;4981792;28;20240;-90
2022/11/07 05:52:48;;;;;;;8.13;3.10;;;10.80;85.90;;;;;;4982244;28;20201;-90
2022/11/07 05:55:14;;;;;;;7.80;2.90;;;10.80;86.20;;;;;;4982390;28;20190;-90
2022/11/07 05:57:39;;;;;;;15.37;3.63;;;10.70;86.30;;;;;;4981957;28;20572;-90
2022/11/07 06:00:05;;;;;;;11.00;2.80;;;10.70;86.20;;;;;;4981307;28;20197;-90
2022/11/07 06:02:31;;;;;;;13.30;3.20;;;10.70;86.30;;;;;;4980334;28;20199;-91
2022/11/07 06:04:57;;;;;;;17.20;3.53;;;10.80;86.50;;;;;;4982182;28;20236;-90
2022/11/07 06:07:22;;;;;;;9.70;2.47;;;10.80;86.00;;;;;;4980419;28;20182;-90
2022/11/07 06:09:48;;;;;;;5.40;2.70;;;11.00;85.70;;;;;;4997887;28;20276;-90
2022/11/07 06:12:13;;;;;;;6.50;3.03;;;10.90;86.00;;;;;;4980272;28;20628;-90
2022/11/07 06:14:39;;;;;;;4.93;2.57;;;10.90;86.40;;;;;;4979612;28;20253;-90
2022/11/07 06:17:06;;;;;;;9.67;3.23;;;10.80;86.40;;;;;;4997814;28;20225;-90
2022/11/07 06:19:31;;;;;;;10.60;3.17;;;10.90;86.20;;;;;;4981452;28;20248;-90
2022/11/07 06:21:59;;;;;;;12.93;3.27;;;10.90;86.20;;;;;;4979892;28;20201;-90
2022/11/07 06:24:25;;;;;;;9.17;2.53;;;10.80;86.20;;;;;;4980805;28;20236;-91
2022/11/07 06:26:50;;;;;;;10.07;3.10;;;10.80;86.40;;;;;;4981387;28;20186;-90
2022/11/07 06:29:16;;;;;;;7.03;2.97;;;10.70;86.50;;;;;;4997690;28;20268;-90
2022/11/07 06:31:41;;;;;;;8.10;2.83;;;10.80;86.50;;;;;;4981809;28;20289;-90
2022/11/07 06:34:07;;;;;;;8.97;3.23;;;10.70;86.70;;;;;;4981866;28;20193;-90
2022/11/07 06:36:32;;;;;;;12.83;4.43;;;10.70;86.90;;;;;;4980024;28;20209;-90
2022/11/07 06:38:58;;;;;;;10.57;2.90;;;10.70;86.90;;;;;;4979968;28;20182;-90
2022/11/07 06:41:24;;;;;;;13.13;3.67;;;10.70;86.90;;;;;;4980457;28;20201;-90
2022/11/07 06:43:50;;;;;;;9.20;3.17;;;10.60;86.80;;;;;;4980869;28;20181;-90
2022/11/07 06:46:18;;;;;;;15.97;4.37;;;10.70;86.70;;;;;;4981593;28;20281;-90
2022/11/07 06:48:43;;;;;;;11.10;3.03;;;10.70;86.80;;;;;;4980218;28;20197;-91
2022/11/07 06:51:10;;;;;;;11.27;3.33;;;10.70;86.70;;;;;;4981438;28;20182;-89
2022/11/07 06:53:36;;;;;;;8.13;2.90;;;10.70;86.80;;;;;;4983113;28;20182;-90
2022/11/07 06:56:04;;;;;;;14.33;3.73;;;10.60;86.80;;;;;;4984471;28;20210;-90
2022/11/07 06:58:30;;;;;;;8.97;2.97;;;10.70;86.80;;;;;;4983946;28;20178;-90
2022/11/07 07:01:04;;;;;;;13.17;3.53;;;10.70;86.90;;;;;;4984218;28;20261;-91
2022/11/07 07:03:29;;;;;;;8.73;2.90;;;10.60;87.00;;;;;;4985785;28;20201;-90
2022/11/07 07:06:00;;;;;;;11.53;3.37;;;10.70;86.90;;;;;;4983324;28;20182;-89
2022/11/07 07:08:26;;;;;;;6.43;2.67;;;10.70;87.10;;;;;;4983515;28;20186;-90
2022/11/07 07:10:51;;;;;;;10.00;2.83;;;10.80;86.60;;;;;;4982603;28;20193;-90
2022/11/07 07:13:17;;;;;;;5.87;2.33;;;10.70;86.90;;;;;;4982525;28;20306;-90
2022/11/07 07:15:51;;;;;;;8.90;2.97;;;10.80;86.80;;;;;;4983379;28;20186;-90
2022/11/07 07:18:18;;;;;;;11.07;3.13;;;10.90;86.50;;;;;;4984240;28;20180;-90
2022/11/07 07:20:44;;;;;;;11.37;3.70;;;11.00;86.10;;;;;;4981707;28;20206;-89
2022/11/07 07:23:10;;;;;;;6.10;2.80;;;11.00;86.20;;;;;;4981792;28;20198;-90
2022/11/07 07:25:35;;;;;;;6.30;2.83;;;11.00;86.40;;;;;;5002174;28;20175;-90
2022/11/07 07:28:01;;;;;;;11.00;3.40;;;11.10;86.00;;;;;;4980820;28;20650;-88
2022/11/07 07:30:26;;;;;;;4.37;2.90;;;11.10;86.10;;;;;;4997581;28;20238;-89
2022/11/07 07:32:52;;;;;;;11.23;3.37;;;11.10;86.10;;;;;;4979981;28;20198;-89
2022/11/07 07:35:17;;;;;;;14.80;3.20;;;11.20;85.80;;;;;;4980288;28;20178;-89
2022/11/07 07:37:43;;;;;;;8.70;3.27;;;11.30;85.90;;;;;;4980011;28;20233;-89
2022/11/07 07:40:10;;;;;;;13.10;3.10;;;11.40;85.70;;;;;;5000136;28;20670;-90
2022/11/07 07:42:41;;;;;;;9.80;3.10;;;11.40;85.60;;;;;;4985069;28;20205;-90
2022/11/07 07:45:07;;;;;;;10.60;3.33;;;11.50;85.30;;;;;;5000599;28;20150;-90
2022/11/07 07:47:32;;;;;;;15.97;3.73;;;11.50;85.10;;;;;;4982418;28;20189;-89
2022/11/07 07:49:58;;;;;;;13.30;3.13;;;11.50;85.00;;;;;;4983274;28;20652;-90
2022/11/07 07:52:23;;;;;;;14.73;3.77;;;11.60;84.90;;;;;;4983408;28;20281;-90
2022/11/07 07:54:53;;;;;;;7.80;3.27;;;11.60;85.10;;;;;;4982877;28;20264;-89
2022/11/07 07:57:18;;;;;;;12.60;4.10;;;11.60;84.60;;;;;;4981560;28;20198;-89
2022/11/07 07:59:44;;;;;;;12.73;3.63;;;11.60;84.60;;;;;;4981258;28;20178;-90
2022/11/07 08:02:11;;;;;;;9.67;2.70;;;11.70;84.40;;;;;;4981560;28;20205;-90
2022/11/07 08:04:36;;;;;;;6.53;2.57;;;11.70;84.20;;;;;;5003095;28;20174;-90
2022/11/07 08:07:02;;;;;;;11.00;2.97;;;11.80;84.10;;;;;;4983296;28;20182;-90
2022/11/07 08:09:35;;;;;;;8.27;2.63;;;11.70;84.30;;;;;;4985155;28;20251;-90
2022/11/07 08:12:04;;;;;;;12.33;3.20;;;11.70;84.50;;;;;;4983320;28;20264;-90
2022/11/07 08:14:30;;;;;;;4.30;2.50;;;11.80;84.60;;;;;;4982483;28;20182;-91
2022/11/07 08:16:56;;;;;;;7.20;2.63;;;11.80;84.30;;;;;;4983891;28;20240;-90
2022/11/07 08:19:22;;;;;;;9.00;2.83;;;11.90;83.90;;;;;;4982125;28;20217;-90
2022/11/07 08:21:47;;;;;;;6.50;2.93;;;11.80;84.30;;;;;;4982099;28;20229;-90
2022/11/07 08:24:13;;;;;;;9.33;2.53;;;11.80;84.40;;;;;;4982079;28;20260;-90
2022/11/07 08:26:39;;;;;;;11.73;3.70;;;11.90;84.20;;;;;;4982864;28;20189;-90
2022/11/07 08:29:04;;;;;;;9.17;3.37;;;12.00;84.20;;;;;;4985906;28;20609;-90
2022/11/07 08:31:30;;;;;;;11.03;3.67;;;12.00;83.70;;;;;;4985286;28;20213;-91
2022/11/07 08:33:57;;;;;;;9.33;3.47;;;12.10;84.00;;;;;;4986068;28;20644;-91
2022/11/07 08:36:23;;;;;;;9.53;3.43;;;12.00;84.20;;;;;;4987324;28;20206;-91
2022/11/07 08:38:49;;;;;;;9.67;3.17;;;12.00;84.10;;;;;;4987593;28;20232;-91
2022/11/07 08:41:14;;;;;;;11.97;3.03;;;12.10;84.00;;;;;;4985722;28;20246;-92
2022/11/07 08:43:40;;;;;;;10.50;3.17;;;12.20;84.00;;;;;;4985751;28;20197;-90
2022/11/07 08:46:06;;;;;;;11.87;3.60;;;12.10;84.20;;;;;;4986271;28;20192;-90
2022/11/07 08:48:31;;;;;;;6.30;2.97;;;12.10;83.90;;;;;;4984230;28;20247;-90
2022/11/07 08:50:58;;;;;;;13.00;3.13;;;12.10;84.00;;;;;;4981529;28;20182;-90
2022/11/07 08:53:24;;;;;;;7.80;2.80;;;12.10;84.00;;;;;;4982212;28;20202;-91
2022/11/07 08:55:50;;;;;;;10.63;3.10;;;12.00;84.40;;;;;;4984385;28;20174;-91
2022/11/07 08:58:17;;;;;;;8.63;2.93;;;11.90;84.60;;;;;;4983394;28;20181;-90
2022/11/07 09:00:43;;;;;;;16.10;3.97;;;11.90;84.60;;;;;;5002796;28;20162;-90
2022/11/07 09:03:10;;;;;;;17.03;4.07;;;11.90;84.70;;;;;;4985422;28;20201;-90
2022/11/07 09:05:37;;;;;;;7.07;3.20;;;12.00;84.30;;;;;;4986479;28;20525;-90
2022/11/07 09:08:02;;;;;;;9.73;3.60;;;12.00;84.20;;;;;;4987192;28;20209;-90
2022/11/07 09:10:28;;;;;;;14.47;3.43;;;12.10;84.60;;;;;;4988470;28;20205;-91
2022/11/07 09:12:53;;;;;;;8.77;3.73;;;12.10;84.50;;;;;;4985607;28;20201;-90
2022/11/07 09:15:19;;;;;;;9.77;3.40;;;12.00;85.00;;;;;;4988112;28;20209;-91
2022/11/07 09:17:45;;;;;;;10.20;3.20;;;12.00;84.70;;;;;;4988854;28;20210;-90
2022/11/07 09:20:21;;;;;;;12.07;3.53;;;12.20;84.70;;;;;;4989042;28;20174;-90
2022/11/07 09:22:47;;;;;;;16.53;3.90;;;12.20;84.70;;;;;;4988694;28;20223;-90
2022/11/07 09:25:12;;;;;;;8.80;3.30;;;12.20;84.30;;;;;;4986970;28;20177;-91
2022/11/07 09:27:38;;;;;;;11.43;3.13;;;12.20;84.60;;;;;;4987069;28;20186;-90
2022/11/07 09:30:05;;;;;;;6.50;3.47;;;12.30;84.50;;;;;;4987722;28;20182;-90
2022/11/07 09:32:30;;;;;;;11.33;3.87;;;12.30;85.00;;;;;;4985548;28;20206;-90
2022/11/07 09:34:56;;;;;;;8.73;3.20;;;12.30;84.80;;;;;;4988853;28;20178;-91
2022/11/07 09:37:21;;;;;;;8.07;3.23;;;12.40;84.50;;;;;;4990208;28;20194;-90
2022/11/07 09:39:47;;;;;;;8.70;3.57;;;12.50;84.20;;;;;;4986545;28;20237;-90
2022/11/07 09:42:18;;;;;;;7.23;2.83;;;12.50;83.90;;;;;;4986088;28;20204;-91
2022/11/07 09:44:54;;;;;;;9.20;3.37;;;12.70;84.20;;;;;;4989005;28;20179;-91
2022/11/07 09:47:44;;;;;;;18.63;3.87;;;12.70;83.90;;;;;;4987241;28;20182;-91
2022/11/07 09:50:34;;;;;;;7.07;3.40;;;12.70;83.10;;;;;;4986416;28;20189;-90
2022/11/07 09:53:02;;;;;;;8.50;3.10;;;12.70;83.70;;;;;;4987395;28;20209;-91
2022/11/07 09:55:35;;;;;;;11.67;3.80;;;12.60;84.30;;;;;;4986009;28;20182;-90
2022/11/07 09:58:04;;;;;;;10.67;4.53;;;12.50;85.10;;;;;;4983624;28;20197;-90
2022/11/07 10:00:31;;;;;;;14.23;3.73;;;12.40;85.60;;;;;;5002119;28;20592;-90
2022/11/07 10:02:59;;;;;;;14.53;3.40;;;12.40;85.70;;;;;;4978178;28;20233;-89
2022/11/07 10:05:48;;;;;;;17.77;4.10;;;12.40;86.00;;;;;;4980286;28;20547;-90
2022/11/07 10:08:43;;;;;;;9.97;2.80;;;12.50;86.00;;;;;;4985720;28;20632;-91
2022/11/07 10:11:26;;;;;;;12.43;4.37;;;12.50;85.40;;;;;;4981747;28;20213;-90
2022/11/07 10:14:07;;;;;;;8.00;4.37;;;12.50;86.30;;;;;;4988140;28;20228;-91
2022/11/07 10:16:46;;;;;;;7.50;3.80;;;12.40;86.40;;;;;;4988271;28;20200;-91
2022/11/07 10:19:22;;;;;;;18.70;3.97;;;12.40;86.60;;;;;;4987423;28;20175;-91
2022/11/07 10:22:09;;;;;;;11.80;4.17;;;12.40;86.00;;;;;;4986301;28;20204;-91
2022/11/07 10:24:46;;;;;;;12.73;4.40;;;12.50;85.90;;;;;;4985345;28;20620;-91
2022/11/07 10:27:12;;;;;;;9.50;3.50;;;12.50;85.80;;;;;;4988101;28;20178;-90
2022/11/07 10:29:51;;;;;;;11.20;4.43;;;12.60;84.80;;;;;;5002427;28;20309;-90
2022/11/07 10:32:44;;;;;;;13.13;4.40;;;12.70;84.80;;;;;;4988611;28;20248;-91
2022/11/07 10:35:23;;;;;;;10.03;3.37;;;12.70;85.00;;;;;;4990568;28;20193;-90
2022/11/07 10:38:32;;;;;;;11.27;4.20;;;12.60;84.30;;;;;;4987328;28;20221;-88
2022/11/07 10:40:58;;;;;;;8.20;3.30;;;12.70;84.20;;;;;;4982276;28;20236;-89
2022/11/07 10:43:38;;;;;;;13.10;4.07;;;12.60;84.90;;;;;;4982126;28;20202;-89
2022/11/07 10:46:17;;;;;;;7.50;3.77;;;12.60;85.50;;;;;;4982392;28;20181;-89
2022/11/07 10:48:51;;;;;;;18.00;4.30;;;12.50;86.50;;;;;;4982952;28;20170;-90
2022/11/07 10:51:17;;;;;;;10.67;3.93;;;12.40;86.30;;;;;;4986057;28;20647;-92
2022/11/07 10:53:44;;;;;;;9.73;4.00;;;12.40;86.50;;;;;;4985727;28;20189;-90
2022/11/07 10:56:12;;;;;;;17.63;4.77;;;12.40;85.80;;;;;;4987280;28;20313;-91
2022/11/07 10:58:43;;;;;;;12.70;3.83;;;12.40;86.40;;;;;;4984083;28;20277;-90
2022/11/07 11:01:10;;;;;;;17.67;4.47;;;12.40;86.20;;;;;;5003588;28;20614;-91
2022/11/07 11:03:45;;;;;;;8.87;3.83;;;12.40;86.80;;;;;;4986911;28;20182;-91
2022/11/07 11:06:17;;;;;;;8.37;4.10;;;12.40;86.90;;;;;;4987871;28;20186;-91
2022/11/07 11:08:45;;;;;;;16.23;4.43;;;12.50;86.80;;;;;;4988924;28;20181;-92
2022/11/07 11:11:35;;;;;;;9.73;3.80;;;12.60;86.80;;;;;;4989613;28;20184;-92
2022/11/07 11:14:12;;;;;;;11.13;4.30;;;12.60;86.30;;;;;;4993653;28;20242;-91
2022/11/07 11:16:40;;;;;;;9.60;4.67;;;12.60;86.10;;;;;;4994357;28;20202;-93
2022/11/07 11:19:18;;;;;;;13.57;3.93;;;12.60;86.00;;;;;;4993350;28;20184;-91
2022/11/07 11:21:45;;;;;;;14.17;4.53;;;12.60;86.60;;;;;;4991877;28;20303;-91
2022/11/07 11:24:38;;;;;;;17.13;3.80;;;12.50;85.80;;;;;;4990742;28;20196;-91
2022/11/07 11:27:18;;;;;;;8.83;3.97;;;12.60;86.50;;;;;;4985939;28;20185;-90
2022/11/07 11:30:06;;;;;;;9.97;4.07;;;12.60;86.70;;;;;;4992536;28;20605;-92
2022/11/07 11:33:02;;;;;;;10.30;4.93;;;12.70;86.50;;;;;;4993623;28;20198;-91
2022/11/07 11:35:35;;;;;;;14.23;4.93;;;12.70;86.30;;;;;;4989497;28;20174;-91
2022/11/07 11:38:23;;;;;;;13.10;4.27;;;12.70;85.60;;;;;;4986177;28;20248;-92
2022/11/07 11:40:58;;;;;;;12.87;4.50;;;12.70;85.70;;;;;;4995147;28;20198;-92
2022/11/07 11:43:28;;;;;;;13.17;3.97;;;12.70;84.70;;;;;;5003820;28;20213;-92
2022/11/07 11:46:35;;;;;;;8.57;4.03;;;12.70;85.10;;;;;;5004317;28;20177;-92
2022/11/07 11:49:23;;;;;;;14.93;4.20;;;12.80;85.00;;;;;;4946362;28;20196;-91
2022/11/07 11:51:55;;;;;;;21.43;4.23;;;12.70;84.90;;;;;;4936724;29;20211;-91
2022/11/07 11:54:20;;;;;;;11.40;4.13;;;12.70;85.00;;;;;;4980056;28;20186;-91
2022/11/07 11:56:57;;;;;;;14.13;5.63;;;12.70;84.90;;;;;;4998709;28;20239;-91
2022/11/07 11:59:54;;;;;;;20.53;4.93;;;12.70;85.00;;;;;;4999846;28;20185;-91
2022/11/07 12:02:29;;;;;;;13.83;3.93;;;12.70;85.30;;;;;;4998429;28;20202;-91
2022/11/07 12:05:01;;;;;;;16.23;4.47;;;12.70;85.60;;;;;;5003316;28;20208;-92
2022/11/07 12:07:44;;;;;;;12.23;4.23;;;12.70;84.90;;;;;;4998730;28;20174;-90
2022/11/07 12:10:39;;;;;;;11.27;3.87;;;12.70;85.00;;;;;;4998237;28;20212;-91
2022/11/07 12:13:30;;;;;;;9.77;4.10;;;12.80;84.70;;;;;;4998075;28;20190;-92
2022/11/07 12:16:21;;;;;;;10.87;4.03;;;12.70;84.90;;;;;;5002105;28;20178;-92
2022/11/07 12:19:19;;;;;;;13.70;4.03;;;12.70;85.40;;;;;;4998257;28;20230;-92
2022/11/07 12:22:09;;;;;;;14.10;4.30;;;12.70;85.00;;;;;;4997901;28;20241;-90
2022/11/07 12:25:04;;;;;;;12.53;4.33;;;12.80;85.10;;;;;;5003698;28;20190;-91
2022/11/07 12:27:50;;;;;;;13.17;3.70;;;12.80;85.00;;;;;;5004582;28;20178;-91
2022/11/07 12:30:26;;;;;;;15.73;4.50;;;12.80;85.20;;;;;;4999184;28;20206;-92
2022/11/07 12:32:57;;;;;;;16.23;4.73;;;12.80;85.10;;;;;;4994180;28;20197;-91
2022/11/07 12:35:35;;;;;;;12.47;4.00;;;12.80;85.10;;;;;;4995466;28;20166;-92
2022/11/07 12:38:31;;;;;;;14.13;4.87;;;12.80;84.90;;;;;;4993493;28;20201;-91
2022/11/07 12:41:16;;;;;;;13.50;4.57;;;12.80;85.60;;;;;;4993242;28;20174;-91
2022/11/07 12:43:47;;;;;;;12.77;4.07;;;12.90;85.20;;;;;;4995267;28;20181;-92
2022/11/07 12:46:24;;;;;;;12.70;4.03;;;12.90;85.00;;;;;;4997972;28;20197;-91
2022/11/07 12:49:31;;;;;;;18.30;4.70;;;13.00;84.90;;;;;;4991145;28;20166;-92
2022/11/07 12:52:02;;;;;;;15.90;4.10;;;13.10;84.20;;;;;;4987961;28;20221;-91
2022/11/07 12:54:50;;;;;;;16.20;4.47;;;13.20;84.70;;;;;;4987454;28;20234;-91
2022/11/07 12:57:25;;;;;;;10.10;3.50;;;13.30;84.40;;;;;;4992303;28;20234;-91
2022/11/07 13:00:05;;;;;;;10.93;3.87;;;13.40;84.10;;;;;;4990754;28;20646;-91
2022/11/07 13:02:40;;;;;;;9.73;3.13;;;13.40;83.90;;;;;;4993597;28;20201;-91
2022/11/07 13:05:17;;;;;;;11.77;3.53;;;13.30;83.90;;;;;;4992259;28;20169;-91
2022/11/07 13:08:23;;;;;;;11.33;3.87;;;13.40;84.00;;;;;;4993775;28;20209;-91
2022/11/07 13:10:54;;;;;;;18.07;5.20;;;13.30;83.50;;;;;;4995199;28;20217;-91